Time;durP1;ratioP1;P1;durP2;ratioP2;P2;SDS_P1;SDS_P2;PMS_P1;PMS_P2;Temp;Humidity;BMP_temperature;BMP_pressure;BME280_temperature;BME280_humidity;BME280_pressure;Samples;Min_cycle;Max_cycle;Signal;HPM_P1;HPM_P2
2022/03/05 00:00:30;;;;;;;41.92;20.33;;;;;;;-1.80;70.53;93128.53;5092326;28;20036;-49
2022/03/05 00:02:56;;;;;;;25.35;15.90;;;;;;;-1.67;70.24;93126.19;5082753;28;20055;-51
2022/03/05 00:05:22;;;;;;;30.80;17.63;;;;;;;-1.60;70.50;93133.13;5071938;28;20085;-47
2022/03/05 00:07:47;;;;;;;29.15;17.48;;;;;;;-1.60;69.69;93133.88;5072012;28;20024;-47
2022/03/05 00:10:13;;;;;;;34.15;20.13;;;;;;;-1.82;70.06;93136.38;5071185;28;20024;-47
2022/03/05 00:12:38;;;;;;;33.40;18.70;;;;;;;-1.63;68.93;93136.81;5071592;28;20025;-46
2022/03/05 00:15:04;;;;;;;39.65;20.60;;;;;;;-1.61;69.02;93139.78;5072033;28;20025;-47
2022/03/05 00:17:29;;;;;;;26.17;16.17;;;;;;;-1.90;69.58;93131.84;5071875;28;20483;-49
2022/03/05 00:19:55;;;;;;;22.77;14.65;;;;;;;-2.22;70.67;93131.03;5072075;28;20425;-46
2022/03/05 00:22:21;;;;;;;26.00;15.20;;;;;;;-2.37;70.98;93133.06;5072007;28;20413;-48
2022/03/05 00:24:46;;;;;;;28.27;15.80;;;;;;;-2.20;71.13;93133.25;5071527;28;20028;-48
2022/03/05 00:27:12;;;;;;;41.20;23.15;;;;;;;-2.31;71.11;93131.91;5071493;28;20021;-49
2022/03/05 00:29:37;;;;;;;44.72;24.70;;;;;;;-2.19;70.95;93134.75;5071867;28;20031;-51
2022/03/05 00:32:03;;;;;;;39.97;20.10;;;;;;;-2.44;71.03;93142.31;5071438;28;20031;-51
2022/03/05 00:34:29;;;;;;;31.60;16.48;;;;;;;-2.34;71.38;93143.66;5071418;28;20024;-50
2022/03/05 00:36:54;;;;;;;36.03;20.13;;;;;;;-2.32;70.86;93140.50;5071554;28;20025;-47
2022/03/05 00:39:20;;;;;;;22.45;14.63;;;;;;;-2.49;70.73;93137.59;5071134;28;20398;-48
2022/03/05 00:41:45;;;;;;;23.63;14.77;;;;;;;-2.53;70.37;93130.88;5088106;28;20413;-48
2022/03/05 00:44:11;;;;;;;21.38;13.52;;;;;;;-2.13;69.57;93141.72;5091424;28;20476;-53
2022/03/05 00:46:36;;;;;;;30.05;18.23;;;;;;;-1.96;69.05;93136.47;5073759;28;20058;-49
2022/03/05 00:49:02;;;;;;;30.55;19.05;;;;;;;-2.16;69.66;93131.84;5091428;28;20547;-50
2022/03/05 00:51:27;;;;;;;26.90;17.25;;;;;;;-2.12;70.24;93132.38;5091610;28;20031;-52
2022/03/05 00:53:53;;;;;;;42.10;22.17;;;;;;;-2.35;70.42;93130.63;5091222;28;20061;-47
2022/03/05 00:56:18;;;;;;;46.03;24.77;;;;;;;-2.29;71.06;93131.44;5091089;28;20048;-49
2022/03/05 00:58:43;;;;;;;43.20;21.50;;;;;;;-2.58;71.27;93131.59;5091359;28;20421;-48
2022/03/05 01:01:09;;;;;;;39.25;20.50;;;;;;;-2.54;71.46;93130.16;5091209;28;20016;-48
2022/03/05 01:03:34;;;;;;;27.35;17.05;;;;;;;-2.35;71.16;93107.06;5075804;28;20021;-47
2022/03/05 01:06:00;;;;;;;31.98;18.98;;;;;;;-2.24;70.60;93122.66;5070850;28;20028;-47
2022/03/05 01:08:26;;;;;;;37.63;19.40;;;;;;;-2.67;71.37;93129.75;5070898;28;20024;-47
2022/03/05 01:10:51;;;;;;;62.60;33.85;;;;;;;-2.61;71.36;93119.75;5070952;28;20028;-46
2022/03/05 01:13:17;;;;;;;47.13;26.15;;;;;;;-2.78;72.08;93123.44;5070636;28;20421;-47
2022/03/05 01:15:42;;;;;;;48.28;24.98;;;;;;;-2.91;73.35;93125.72;5070980;28;20016;-48
2022/03/05 01:18:08;;;;;;;48.80;27.77;;;;;;;-2.60;72.39;93117.81;5070514;28;20012;-47
2022/03/05 01:20:33;;;;;;;54.42;30.08;;;;;;;-2.66;73.03;93117.72;5070566;28;20058;-46
2022/03/05 01:22:58;;;;;;;45.75;25.17;;;;;;;-2.59;72.88;93116.56;5070827;28;20048;-46
2022/03/05 01:25:24;;;;;;;41.28;25.60;;;;;;;-2.63;72.26;93111.38;5070794;28;20032;-46
2022/03/05 01:27:49;;;;;;;36.17;21.77;;;;;;;-2.43;71.91;93107.94;5070691;28;20417;-50
2022/03/05 01:30:15;;;;;;;38.58;22.52;;;;;;;-2.40;72.05;93104.25;5070711;28;20091;-47
2022/03/05 01:32:40;;;;;;;51.75;27.88;;;;;;;-2.42;72.39;93101.28;5070462;28;20033;-47
2022/03/05 01:35:06;;;;;;;77.90;42.00;;;;;;;-2.42;71.70;93106.69;5070308;28;20025;-51
2022/03/05 01:37:32;;;;;;;56.72;30.08;;;;;;;-2.21;71.17;93100.09;5070216;28;20099;-52
2022/03/05 01:39:57;;;;;;;52.95;28.25;;;;;;;-2.07;70.51;93107.34;5072381;28;20103;-47
2022/03/05 01:42:24;;;;;;;48.80;25.08;;;;;;;-2.11;69.88;93081.72;5090410;28;20416;-51
2022/03/05 01:44:50;;;;;;;39.13;21.42;;;;;;;-2.00;69.27;93100.78;5090317;28;20016;-48
2022/03/05 01:47:15;;;;;;;40.55;24.17;;;;;;;-2.04;70.43;93105.66;5090646;28;20035;-51
2022/03/05 01:49:41;;;;;;;36.38;21.13;;;;;;;-2.32;70.52;93106.09;5090775;28;20445;-51
2022/03/05 01:52:06;;;;;;;44.15;24.17;;;;;;;-2.27;71.10;93103.94;5089652;28;20390;-51
2022/03/05 01:54:32;;;;;;;39.88;23.63;;;;;;;-2.18;70.75;93104.53;5090450;28;20016;-53
2022/03/05 01:56:59;;;;;;;37.35;21.13;;;;;;;-2.42;70.78;93093.19;5068693;28;20078;-51
2022/03/05 01:59:25;;;;;;;33.08;20.48;;;;;;;-2.32;71.12;93111.50;5070017;28;20031;-53
2022/03/05 02:01:50;;;;;;;35.80;18.15;;;;;;;-2.30;71.45;93102.94;5070271;28;20032;-50
2022/03/05 02:04:16;;;;;;;33.78;19.98;;;;;;;-2.42;71.55;93104.75;5070389;28;20095;-51
2022/03/05 02:06:42;;;;;;;37.95;21.75;;;;;;;-2.47;72.16;93108.13;5069960;28;20024;-50
2022/03/05 02:09:07;;;;;;;36.47;21.08;;;;;;;-2.23;72.44;93105.19;5069857;28;20039;-50
2022/03/05 02:11:33;;;;;;;37.35;21.23;;;;;;;-2.19;72.02;93102.31;5069945;28;20021;-51
2022/03/05 02:13:59;;;;;;;33.60;20.60;;;;;;;-2.40;72.65;93105.00;5070364;28;20020;-52
2022/03/05 02:16:25;;;;;;;37.88;19.33;;;;;;;-2.39;73.17;93100.34;5070033;28;20025;-49
2022/03/05 02:18:51;;;;;;;30.80;19.27;;;;;;;-2.12;73.14;93099.91;5070093;28;20490;-52
2022/03/05 02:21:17;;;;;;;33.67;21.30;;;;;;;-2.18;72.09;93077.47;5070144;28;20103;-49
2022/03/05 02:23:43;;;;;;;33.10;18.95;;;;;;;-1.86;72.24;93097.97;5069789;28;20024;-51
2022/03/05 02:26:09;;;;;;;34.20;21.02;;;;;;;-1.66;71.20;93106.03;5069962;28;20028;-49
2022/03/05 02:28:36;;;;;;;63.50;34.17;;;;;;;-1.76;71.33;93110.13;5070117;28;20024;-51
2022/03/05 02:31:01;;;;;;;67.78;37.50;;;;;;;-1.90;70.86;93102.09;5069768;28;20033;-53
2022/03/05 02:33:27;;;;;;;56.30;32.30;;;;;;;-1.72;71.05;93105.25;5068330;28;20021;-54
2022/03/05 02:35:53;;;;;;;52.95;29.27;;;;;;;-1.73;70.98;93111.13;5069917;28;20029;-53
2022/03/05 02:38:21;;;;;;;48.80;26.77;;;;;;;-1.59;70.36;93102.91;5069618;28;20067;-52
2022/03/05 02:40:48;;;;;;;39.67;23.02;;;;;;;-1.78;71.11;93109.88;5078281;28;20023;-53
2022/03/05 02:43:14;;;;;;;42.60;21.50;;;;;;;-1.62;71.20;93101.16;5090133;28;20028;-54
2022/03/05 02:45:40;;;;;;;29.95;20.10;;;;;;;-1.70;70.85;93086.56;5089904;28;20093;-55
2022/03/05 02:48:16;;;;;;;30.52;18.92;;;;;;;-1.41;70.87;93101.81;5089663;28;20020;-50
2022/03/05 02:50:42;;;;;;;29.20;16.42;;;;;;;-1.56;71.22;93101.94;5090095;28;20020;-54
2022/03/05 02:53:09;;;;;;;30.08;16.25;;;;;;;-1.55;71.22;93108.09;5090027;28;20408;-51
2022/03/05 02:55:34;;;;;;;27.23;15.55;;;;;;;-1.46;70.64;93112.59;5092497;28;20040;-55
2022/03/05 02:58:00;;;;;;;34.33;18.40;;;;;;;-1.42;70.89;93099.56;5110342;28;20118;-49
2022/03/05 03:00:26;;;;;;;36.58;22.15;;;;;;;-1.61;70.69;93096.47;5110294;28;20106;-48
2022/03/05 03:02:51;;;;;;;37.58;21.90;;;;;;;-1.66;70.78;93105.28;5083257;28;20024;-51
2022/03/05 03:05:17;;;;;;;38.55;23.77;;;;;;;-1.60;71.07;93109.53;5093657;28;20030;-51
2022/03/05 03:07:44;;;;;;;55.97;32.03;;;;;;;-1.37;71.24;93104.31;5093659;28;20039;-47
2022/03/05 03:10:10;;;;;;;65.15;31.48;;;;;;;-1.33;70.40;93107.53;5093574;28;20016;-52
2022/03/05 03:12:36;;;;;;;61.97;33.08;;;;;;;-1.37;69.84;93112.44;5093548;28;20411;-50
2022/03/05 03:15:03;;;;;;;61.83;33.72;;;;;;;-1.16;69.80;93113.81;5093081;28;20031;-49
2022/03/05 03:17:29;;;;;;;62.60;32.00;;;;;;;-1.20;69.49;93121.41;5091299;28;20028;-48
2022/03/05 03:19:55;;;;;;;58.15;31.10;;;;;;;-1.19;69.59;93120.94;5073132;28;20413;-51
2022/03/05 03:22:20;;;;;;;54.75;30.15;;;;;;;-1.34;70.03;93120.31;5072808;28;20094;-50
2022/03/05 03:24:46;;;;;;;50.72;27.92;;;;;;;-1.36;70.05;93120.06;5073001;28;20032;-54
2022/03/05 03:27:11;;;;;;;56.10;31.50;;;;;;;-1.22;70.18;93113.03;5072721;28;20021;-55
2022/03/05 03:29:37;;;;;;;55.13;31.05;;;;;;;-1.10;69.61;93112.63;5073039;28;20024;-53
2022/03/05 03:32:03;;;;;;;50.35;28.40;;;;;;;-1.10;70.08;93114.59;5072676;28;20047;-48
2022/03/05 03:34:29;;;;;;;46.20;26.08;;;;;;;-1.16;70.37;93108.41;5089056;28;20081;-50
2022/03/05 03:36:54;;;;;;;47.83;23.80;;;;;;;-1.06;70.08;93112.44;5092135;28;20036;-50
2022/03/05 03:39:20;;;;;;;35.40;22.13;;;;;;;-1.06;70.53;93115.13;5092793;28;20024;-47
2022/03/05 03:41:45;;;;;;;34.10;21.48;;;;;;;-1.10;70.38;93112.63;5109795;28;20024;-49
2022/03/05 03:44:11;;;;;;;36.38;19.98;;;;;;;-1.09;70.46;93113.38;5113340;28;20389;-49
2022/03/05 03:46:37;;;;;;;36.25;22.63;;;;;;;-1.25;70.61;93114.00;5113343;28;20472;-51
2022/03/05 03:49:02;;;;;;;32.00;18.92;;;;;;;-1.31;70.64;93124.03;5113339;28;20023;-53
2022/03/05 03:51:28;;;;;;;32.67;19.52;;;;;;;-1.46;70.84;93123.41;5112985;28;20163;-53
2022/03/05 03:53:53;;;;;;;35.75;20.90;;;;;;;-1.55;71.73;93129.75;5113060;28;20031;-52
2022/03/05 03:56:19;;;;;;;36.65;21.67;;;;;;;-1.54;71.28;93123.84;5112835;28;20039;-54
2022/03/05 03:58:44;;;;;;;60.65;32.55;;;;;;;-1.61;71.35;93120.84;5112810;28;20039;-51
2022/03/05 04:01:10;;;;;;;59.92;32.53;;;;;;;-1.40;71.35;93126.91;5112763;28;20059;-54
2022/03/05 04:03:35;;;;;;;66.53;38.17;;;;;;;-1.31;70.94;93129.47;5097320;28;20020;-54
2022/03/05 04:06:00;;;;;;;48.88;28.48;;;;;;;-1.43;71.50;93134.06;5092655;28;20024;-52
2022/03/05 04:08:44;;;;;;;47.15;25.23;;;;;;;-1.41;70.94;93126.19;5092234;28;20020;-53
2022/03/05 04:11:11;;;;;;;46.97;26.58;;;;;;;-1.61;71.67;93137.09;5092531;28;20024;-50
2022/03/05 04:13:37;;;;;;;35.38;20.88;;;;;;;-1.78;72.60;93136.19;5092502;28;20099;-50
2022/03/05 04:16:03;;;;;;;31.00;18.58;;;;;;;-1.58;72.05;93136.09;5091344;28;20055;-48
2022/03/05 04:18:29;;;;;;;30.95;18.17;;;;;;;-1.61;71.38;93137.84;5081538;28;20047;-52
2022/03/05 04:20:54;;;;;;;44.45;22.75;;;;;;;-1.94;72.45;93151.00;5071623;28;20064;-49
2022/03/05 04:23:20;;;;;;;33.25;18.80;;;;;;;-1.91;73.20;93144.66;5071996;28;20044;-52
2022/03/05 04:25:46;;;;;;;31.95;19.42;;;;;;;-1.79;72.60;93146.25;5071725;28;20086;-51
2022/03/05 04:28:12;;;;;;;36.53;20.45;;;;;;;-1.67;72.13;93149.81;5071547;28;20027;-50
2022/03/05 04:30:37;;;;;;;49.83;26.75;;;;;;;-1.48;71.48;93147.53;5086987;28;20027;-52
2022/03/05 04:33:02;;;;;;;50.00;26.25;;;;;;;-1.52;71.20;93149.72;5091628;28;20027;-53
2022/03/05 04:35:28;;;;;;;51.53;27.23;;;;;;;-1.62;71.83;93149.88;5092007;28;20020;-49
2022/03/05 04:37:53;;;;;;;59.88;31.77;;;;;;;-1.61;72.37;93145.94;5091590;28;20028;-51
2022/03/05 04:40:19;;;;;;;166.30;76.65;;;;;;;-1.57;72.83;93149.19;5096581;28;20027;-53
2022/03/05 04:42:45;;;;;;;144.07;62.92;;;;;;;-1.46;72.27;93145.09;5111701;28;20573;-49
2022/03/05 04:45:10;;;;;;;65.72;36.72;;;;;;;-1.26;70.83;93143.06;5112212;28;20019;-53
2022/03/05 04:47:37;;;;;;;54.28;32.83;;;;;;;-1.21;70.55;93144.31;5111747;28;20208;-49
2022/03/05 04:50:04;;;;;;;55.83;32.38;;;;;;;-1.25;70.65;93138.38;5111786;28;20121;-46
2022/03/05 04:52:29;;;;;;;66.85;36.72;;;;;;;-1.11;70.60;93140.22;5111985;28;20031;-50
2022/03/05 04:54:55;;;;;;;78.15;41.35;;;;;;;-1.23;70.67;93136.66;5111577;28;20026;-50
2022/03/05 04:57:21;;;;;;;57.85;32.42;;;;;;;-1.27;71.28;93146.22;5111471;28;20052;-49
2022/03/05 04:59:47;;;;;;;39.78;24.30;;;;;;;-1.28;71.77;93139.34;5111520;28;20094;-49
2022/03/05 05:02:12;;;;;;;34.33;20.35;;;;;;;-1.38;71.39;93143.41;5107796;28;20021;-47
2022/03/05 05:04:38;;;;;;;28.83;19.25;;;;;;;-1.54;72.02;93142.78;5091414;28;20031;-48
2022/03/05 05:07:03;;;;;;;34.35;20.77;;;;;;;-1.71;72.91;93141.91;5090990;28;20544;-49
2022/03/05 05:09:30;;;;;;;47.92;26.85;;;;;;;-1.58;72.85;93144.97;5091057;28;20081;-48
2022/03/05 05:11:55;;;;;;;29.77;18.75;;;;;;;-1.52;73.13;93145.75;5090880;28;20020;-52
2022/03/05 05:14:21;;;;;;;30.65;18.77;;;;;;;-1.42;72.40;93145.59;5090996;28;20020;-51
2022/03/05 05:16:46;;;;;;;34.90;20.75;;;;;;;-1.39;72.80;93150.06;5090933;28;20024;-50
2022/03/05 05:19:24;;;;;;;50.17;28.73;;;;;;;-1.51;72.81;93160.06;5074229;28;20486;-51
2022/03/05 05:21:51;;;;;;;43.45;24.50;;;;;;;-1.72;73.63;93158.63;5070953;28;20027;-49
2022/03/05 05:24:17;;;;;;;48.70;26.98;;;;;;;-1.81;74.19;93158.78;5070740;28;20024;-51
2022/03/05 05:26:42;;;;;;;51.53;29.38;;;;;;;-1.69;74.18;93161.09;5084331;28;20085;-51
2022/03/05 05:29:08;;;;;;;60.53;32.67;;;;;;;-1.52;74.30;93169.41;5090628;28;20031;-49
2022/03/05 05:31:33;;;;;;;59.40;32.50;;;;;;;-1.34;73.97;93173.75;5090907;28;20585;-51
2022/03/05 05:33:59;;;;;;;80.00;45.28;;;;;;;-1.36;73.15;93174.22;5090590;28;20016;-51
2022/03/05 05:36:25;;;;;;;91.93;50.13;;;;;;;-1.20;72.95;93172.88;5090389;28;20508;-53
2022/03/05 05:38:51;;;;;;;68.80;39.70;;;;;;;-1.05;72.96;93184.34;5090839;28;20028;-52
2022/03/05 05:41:18;;;;;;;55.97;34.28;;;;;;;-1.07;72.67;93184.81;5090156;28;20053;-53
2022/03/05 05:43:44;;;;;;;48.97;29.05;;;;;;;-1.18;73.00;93176.59;5090735;28;20044;-52
2022/03/05 05:46:10;;;;;;;36.55;23.42;;;;;;;-1.30;73.56;93152.63;5090735;28;20019;-51
2022/03/05 05:48:36;;;;;;;46.92;27.17;;;;;;;-0.91;72.83;93178.78;5090616;28;20073;-52
2022/03/05 05:51:01;;;;;;;65.22;33.20;;;;;;;-0.79;72.80;93190.44;5090692;28;20032;-50
2022/03/05 05:53:27;;;;;;;55.65;34.85;;;;;;;-0.72;72.24;93192.72;5090506;28;20488;-50
2022/03/05 05:55:54;;;;;;;53.70;32.50;;;;;;;-0.63;72.05;93187.13;5090203;28;20040;-51
2022/03/05 05:58:20;;;;;;;52.83;30.58;;;;;;;-0.53;71.58;93177.56;5072514;28;20424;-47
2022/03/05 06:00:46;;;;;;;56.38;33.78;;;;;;;-0.22;70.80;93207.31;5090384;28;20027;-50
2022/03/05 06:03:12;;;;;;;51.92;32.97;;;;;;;-0.09;70.19;93212.34;5089974;28;20451;-50
2022/03/05 06:05:37;;;;;;;52.83;30.33;;;;;;;-0.12;68.69;93176.06;5089674;28;20035;-52
2022/03/05 06:08:03;;;;;;;56.58;34.90;;;;;;;0.21;68.67;93207.28;5090236;28;20016;-54
2022/03/05 06:10:29;;;;;;;89.55;52.85;;;;;;;-0.03;69.38;93210.38;5090119;28;20520;-51
2022/03/05 06:12:55;;;;;;;74.35;43.65;;;;;;;-0.11;69.54;93209.38;5090382;28;20122;-52
2022/03/05 06:15:21;;;;;;;56.92;36.90;;;;;;;0.00;69.41;93212.13;5090369;28;20019;-49
2022/03/05 06:17:46;;;;;;;52.78;32.97;;;;;;;0.20;68.88;93227.50;5085698;28;20021;-52
2022/03/05 06:20:12;;;;;;;33.22;22.13;;;;;;;0.40;67.79;93221.91;5070004;28;20032;-57
2022/03/05 06:22:38;;;;;;;32.50;19.20;;;;;;;0.54;67.74;93220.97;5081178;28;20107;-50
2022/03/05 06:25:07;;;;;;;35.15;22.40;;;;;;;0.69;67.21;93224.22;5090180;28;20421;-52
2022/03/05 06:27:33;;;;;;;36.45;23.85;;;;;;;0.84;66.75;93234.88;5090296;28;20089;-54
2022/03/05 06:29:58;;;;;;;40.92;23.25;;;;;;;0.84;66.98;93224.75;5089962;28;20493;-56
2022/03/05 06:32:24;;;;;;;31.15;19.02;;;;;;;0.97;66.05;93229.72;5089892;28;20031;-55
2022/03/05 06:34:49;;;;;;;40.13;20.35;;;;;;;1.18;66.04;93230.97;5090202;28;20024;-53
2022/03/05 06:37:15;;;;;;;34.38;20.65;;;;;;;1.29;66.75;93234.44;5089789;28;20047;-54
2022/03/05 06:39:40;;;;;;;48.65;30.20;;;;;;;1.53;66.21;93231.97;5093715;28;20023;-55
2022/03/05 06:42:06;;;;;;;74.95;45.95;;;;;;;1.74;65.75;93240.59;5093563;28;20019;-54
2022/03/05 06:44:32;;;;;;;182.25;96.13;;;;;;;1.98;65.43;93243.53;5094240;28;20024;-55
2022/03/05 06:46:58;;;;;;;160.38;91.03;;;;;;;2.26;64.62;93244.19;5094006;28;20020;-51
2022/03/05 06:49:24;;;;;;;198.15;102.22;;;;;;;2.56;63.71;93238.88;5093682;28;20734;-51
2022/03/05 06:51:49;;;;;;;253.40;127.55;;;;;;;2.79;62.33;93240.28;5094005;28;20020;-51
2022/03/05 06:54:14;;;;;;;228.45;115.07;;;;;;;2.93;62.05;93246.63;5093953;28;20539;-50
2022/03/05 06:56:40;;;;;;;218.80;108.38;;;;;;;3.16;61.52;93244.50;5093412;28;20051;-51
2022/03/05 06:59:05;;;;;;;230.45;113.55;;;;;;;3.27;60.71;93245.16;5092464;28;20016;-50
2022/03/05 07:01:31;;;;;;;236.23;114.38;;;;;;;3.44;60.31;93237.63;5091502;28;20144;-50
2022/03/05 07:03:56;;;;;;;193.38;102.15;;;;;;;3.60;59.16;93233.25;5091230;28;20024;-50
2022/03/05 07:06:22;;;;;;;196.73;100.18;;;;;;;3.81;58.93;93228.88;5091054;28;20027;-49
2022/03/05 07:08:47;;;;;;;190.98;106.10;;;;;;;3.91;58.85;93216.38;5090780;28;20019;-48
2022/03/05 07:11:13;;;;;;;164.00;90.18;;;;;;;4.16;58.86;93238.97;5090429;28;20031;-49
2022/03/05 07:13:38;;;;;;;182.27;94.53;;;;;;;4.32;58.42;93240.78;5091139;28;20024;-47
2022/03/05 07:16:04;;;;;;;237.90;112.80;;;;;;;4.33;57.30;93232.06;5091039;28;20496;-47
2022/03/05 07:18:29;;;;;;;217.10;101.57;;;;;;;4.56;58.08;93229.81;5072429;28;20512;-46
2022/03/05 07:20:57;;;;;;;200.48;93.90;;;;;;;4.76;56.68;93232.06;5091254;28;20031;-51
2022/03/05 07:23:23;;;;;;;94.40;48.83;;;;;;;5.07;54.88;93225.94;5090585;28;20080;-49
2022/03/05 07:25:48;;;;;;;90.13;48.33;;;;;;;5.20;53.46;93214.28;5089724;28;20020;-51
2022/03/05 07:28:14;;;;;;;90.03;48.10;;;;;;;5.33;53.81;93236.25;5090851;28;20055;-51
2022/03/05 07:30:40;;;;;;;45.08;27.35;;;;;;;5.59;52.98;93241.84;5090959;28;20024;-50
2022/03/05 07:33:06;;;;;;;38.22;25.75;;;;;;;5.64;52.99;93241.03;5090563;28;20038;-52
2022/03/05 07:35:32;;;;;;;43.40;26.40;;;;;;;5.64;52.15;93237.53;5090271;28;20020;-50
2022/03/05 07:37:58;;;;;;;52.70;33.03;;;;;;;5.63;51.29;93227.84;5090595;28;20421;-49
2022/03/05 07:40:23;;;;;;;46.78;30.17;;;;;;;5.48;51.62;93222.84;5095991;28;20024;-49
2022/03/05 07:42:49;;;;;;;66.78;41.67;;;;;;;5.51;52.45;93223.78;5110672;28;20045;-49
2022/03/05 07:45:14;;;;;;;53.10;31.90;;;;;;;5.46;52.19;93227.38;5092610;28;20031;-48
2022/03/05 07:47:41;;;;;;;50.28;23.55;;;;;;;5.15;52.95;93215.88;5111101;28;20023;-49
2022/03/05 07:50:07;;;;;;;44.17;20.13;;;;;;;5.08;54.03;93227.41;5109285;28;20031;-51
2022/03/05 07:52:32;;;;;;;40.92;23.73;;;;;;;4.87;54.10;93222.97;5090898;28;20035;-52
2022/03/05 07:54:58;;;;;;;31.13;19.55;;;;;;;4.74;54.61;93229.13;5090188;28;20020;-49
2022/03/05 07:57:23;;;;;;;27.35;14.75;;;;;;;4.38;56.83;93231.28;5089703;28;20568;-50
2022/03/05 07:59:49;;;;;;;25.30;15.63;;;;;;;4.24;56.55;93223.47;5089113;28;20092;-50
2022/03/05 08:02:15;;;;;;;21.60;13.88;;;;;;;3.91;58.21;93234.72;5088671;28;20070;-51
2022/03/05 08:04:47;;;;;;;34.30;15.30;;;;;;;3.88;59.45;93235.78;5088547;28;20145;-47
2022/03/05 08:07:13;;;;;;;17.60;13.25;;;;;;;4.01;59.05;93227.69;5088823;28;20031;-48
2022/03/05 08:09:41;;;;;;;21.90;13.93;;;;;;;4.16;59.04;93234.22;5088223;28;20024;-49
2022/03/05 08:12:07;;;;;;;26.20;14.70;;;;;;;4.31;59.58;93231.13;5088860;28;20058;-49
2022/03/05 08:14:32;;;;;;;23.13;15.35;;;;;;;4.40;58.49;93219.81;5089689;28;20051;-50
2022/03/05 08:16:58;;;;;;;25.15;15.65;;;;;;;4.54;58.50;93227.63;5090148;28;20532;-51
2022/03/05 08:19:23;;;;;;;30.40;16.40;;;;;;;4.52;58.98;93232.13;5089955;28;20466;-49
2022/03/05 08:21:48;;;;;;;28.63;15.50;;;;;;;4.78;58.29;93226.81;5090003;28;20024;-48
2022/03/05 08:24:14;;;;;;;20.75;14.63;;;;;;;4.92;55.84;93230.34;5089450;28;20032;-49
2022/03/05 08:26:39;;;;;;;23.98;15.63;;;;;;;5.15;56.01;93226.81;5088580;28;20056;-48
2022/03/05 08:29:05;;;;;;;26.48;16.77;;;;;;;4.96;55.89;93219.88;5089664;28;20074;-48
2022/03/05 08:31:31;;;;;;;27.02;19.45;;;;;;;5.03;55.36;93238.41;5089507;28;20081;-48
2022/03/05 08:33:58;;;;;;;27.75;18.42;;;;;;;5.26;54.29;93239.63;5089377;28;20056;-49
2022/03/05 08:36:24;;;;;;;34.08;21.63;;;;;;;5.33;54.18;93241.72;5089165;28;20028;-50
2022/03/05 08:38:49;;;;;;;26.08;16.67;;;;;;;5.37;54.15;93242.19;5089255;28;20039;-53
2022/03/05 08:41:15;;;;;;;41.55;23.95;;;;;;;5.44;53.95;93240.81;5089508;28;20024;-48
2022/03/05 08:43:42;;;;;;;34.38;21.75;;;;;;;5.57;53.66;93235.41;5089761;28;20054;-51
2022/03/05 08:46:08;;;;;;;59.55;30.45;;;;;;;5.69;53.45;93240.19;5089662;28;20067;-49
2022/03/05 08:48:34;;;;;;;59.35;23.92;;;;;;;5.63;53.17;93230.59;5089597;28;20092;-49
2022/03/05 08:50:59;;;;;;;38.30;21.77;;;;;;;5.68;52.76;93235.97;5089051;28;20420;-51
2022/03/05 08:53:25;;;;;;;32.72;22.27;;;;;;;5.72;52.83;93239.13;5089240;28;20033;-53
2022/03/05 08:55:51;;;;;;;44.10;26.83;;;;;;;5.96;52.84;93238.28;5088933;28;20075;-49
2022/03/05 08:58:16;;;;;;;54.28;31.50;;;;;;;6.22;52.13;93249.28;5089072;28;20036;-50
2022/03/05 09:00:42;;;;;;;28.77;18.75;;;;;;;6.26;52.22;93241.50;5087911;28;20038;-49
2022/03/05 09:03:07;;;;;;;30.17;22.70;;;;;;;6.43;51.97;93238.47;5088940;28;20424;-51
2022/03/05 09:05:33;;;;;;;25.17;18.15;;;;;;;6.36;51.35;93242.56;5088976;28;20024;-49
2022/03/05 09:07:58;;;;;;;32.08;20.95;;;;;;;6.62;51.25;93248.06;5089309;28;20028;-49
2022/03/05 09:10:24;;;;;;;23.77;18.30;;;;;;;6.42;51.24;93256.91;5075622;28;20631;-51
2022/03/05 09:12:49;;;;;;;24.98;17.80;;;;;;;6.16;52.29;93248.66;5088711;28;20020;-49
2022/03/05 09:15:15;;;;;;;30.77;18.33;;;;;;;6.25;51.90;93255.72;5089158;28;20032;-52
2022/03/05 09:17:42;;;;;;;23.65;17.80;;;;;;;6.01;52.85;93248.41;5088828;28;20028;-47
2022/03/05 09:20:08;;;;;;;41.67;25.70;;;;;;;5.82;53.37;93242.25;5088381;28;20051;-47
2022/03/05 09:22:34;;;;;;;36.45;23.05;;;;;;;5.35;54.93;93228.25;5088304;28;20061;-50
2022/03/05 09:24:59;;;;;;;31.83;20.77;;;;;;;5.41;55.19;93248.09;5087320;28;20028;-49
2022/03/05 09:27:24;;;;;;;31.00;22.33;;;;;;;5.35;56.80;93250.91;5088722;28;20089;-48
2022/03/05 09:29:50;;;;;;;34.17;18.30;;;;;;;5.17;55.83;93245.47;5088699;28;20054;-48
2022/03/05 09:32:15;;;;;;;31.83;18.10;;;;;;;4.95;57.09;93245.75;5088340;28;20158;-47
2022/03/05 09:34:41;;;;;;;26.70;18.10;;;;;;;5.02;57.45;93245.91;5088541;28;20036;-50
2022/03/05 09:37:06;;;;;;;27.10;17.10;;;;;;;5.11;57.69;93245.53;5088706;28;20028;-52
2022/03/05 09:39:32;;;;;;;24.80;17.42;;;;;;;5.18;57.26;93250.41;5089048;28;20024;-48
2022/03/05 09:41:58;;;;;;;32.42;18.88;;;;;;;5.12;58.30;93249.00;5088178;28;20041;-48
2022/03/05 09:44:23;;;;;;;35.20;20.85;;;;;;;5.34;58.64;93254.16;5088008;28;20028;-50
2022/03/05 09:46:50;;;;;;;39.92;26.58;;;;;;;5.52;58.45;93250.69;5087864;28;20398;-49
2022/03/05 09:49:16;;;;;;;29.67;16.95;;;;;;;5.27;58.93;93250.03;5087998;28;20039;-51
2022/03/05 09:51:41;;;;;;;25.77;17.35;;;;;;;5.38;58.17;93235.44;5088055;28;20032;-49
2022/03/05 09:54:06;;;;;;;28.25;18.35;;;;;;;5.72;57.73;93257.56;5088143;28;20051;-50
2022/03/05 09:56:32;;;;;;;24.15;16.85;;;;;;;5.77;57.38;93252.03;5087861;28;20555;-47
2022/03/05 09:58:58;;;;;;;23.30;15.30;;;;;;;5.16;57.67;93250.19;5088392;28;20070;-47
2022/03/05 10:01:23;;;;;;;28.55;18.35;;;;;;;5.15;59.07;93248.72;5088419;28;20035;-49
2022/03/05 10:03:51;;;;;;;35.70;22.17;;;;;;;5.61;59.14;93246.81;5088379;28;20564;-49
2022/03/05 10:06:22;;;;;;;32.57;19.17;;;;;;;5.92;59.17;93246.81;5088355;28;20035;-49
2022/03/05 10:08:51;;;;;;;27.23;17.23;;;;;;;6.00;57.48;93242.19;5067777;28;20480;-49
2022/03/05 10:11:18;;;;;;;43.80;19.48;;;;;;;6.34;58.72;93236.13;5067515;28;20044;-50
2022/03/05 10:13:43;;;;;;;27.25;18.08;;;;;;;6.51;58.20;93240.03;5066916;28;20052;-50
2022/03/05 10:16:32;;;;;;;26.77;17.60;;;;;;;7.14;57.09;93238.28;5067598;28;20067;-48
2022/03/05 10:19:14;;;;;;;30.17;19.58;;;;;;;8.13;54.31;93237.97;5082340;28;20036;-50
2022/03/05 10:22:03;;;;;;;23.42;16.58;;;;;;;9.23;52.16;93228.00;5087767;28;20524;-48
2022/03/05 10:24:39;;;;;;;22.55;15.68;;;;;;;10.05;48.77;93230.22;5086726;28;20028;-49
2022/03/05 10:27:06;;;;;;;24.63;16.80;;;;;;;10.52;48.22;93227.69;5088403;28;20031;-50
2022/03/05 10:29:37;;;;;;;22.23;17.17;;;;;;;11.54;44.92;93218.72;5088223;28;20028;-50
2022/03/05 10:32:11;;;;;;;24.92;18.55;;;;;;;11.83;42.46;93213.59;5087903;28;20028;-53
2022/03/05 10:34:41;;;;;;;24.20;17.92;;;;;;;11.50;42.08;93220.41;5087767;28;20056;-49
2022/03/05 10:37:06;;;;;;;24.20;17.25;;;;;;;11.19;44.75;93201.19;5087717;28;20087;-54
2022/03/05 10:39:32;;;;;;;24.20;18.15;;;;;;;10.73;44.87;93223.97;5087576;28;20463;-51
2022/03/05 10:41:57;;;;;;;26.65;18.00;;;;;;;10.64;45.78;93219.75;5086432;28;20107;-52
2022/03/05 10:44:23;;;;;;;24.45;18.90;;;;;;;10.83;45.09;93214.53;5086780;28;20034;-49
2022/03/05 10:47:05;;;;;;;28.92;20.90;;;;;;;11.18;44.49;93215.53;5086545;28;20489;-50
2022/03/05 10:49:36;;;;;;;31.85;22.00;;;;;;;11.63;42.97;93198.75;5087457;28;20030;-52
2022/03/05 10:52:04;;;;;;;37.00;19.23;;;;;;;13.01;40.90;93211.72;5087545;28;20035;-49
2022/03/05 10:54:41;;;;;;;33.17;21.00;;;;;;;13.37;39.52;93206.31;5087580;28;20161;-51
2022/03/05 10:57:17;;;;;;;23.20;17.30;;;;;;;13.40;39.24;93215.53;5086402;28;20603;-52
2022/03/05 10:59:47;;;;;;;22.55;18.00;;;;;;;13.23;38.19;93210.72;5085612;28;20562;-53
2022/03/05 11:02:15;;;;;;;33.75;19.67;;;;;;;12.27;39.75;93206.28;5086100;28;20035;-50
2022/03/05 11:04:42;;;;;;;26.83;19.92;;;;;;;11.31;41.21;93209.78;5085574;28;20731;-54
2022/03/05 11:07:09;;;;;;;24.73;18.00;;;;;;;10.55;42.05;93210.00;5085906;28;20648;-52
2022/03/05 11:09:36;;;;;;;28.63;21.95;;;;;;;10.34;43.56;93201.19;5086027;28;20031;-54
2022/03/05 11:12:03;;;;;;;31.73;23.77;;;;;;;9.51;44.30;93197.59;5086039;28;20417;-50
2022/03/05 11:14:29;;;;;;;30.10;22.50;;;;;;;9.06;45.03;93193.44;5087341;28;20027;-50